createdAt,value
2023-05-07T00:00:47.099Z,81.63
2023-05-07T00:03:15.030Z,82.57
2023-05-07T00:05:42.555Z,81.43
2023-05-07T00:08:09.071Z,81.36
2023-05-07T00:10:35.541Z,84.57
2023-05-07T00:13:02.183Z,82.55
2023-05-07T00:15:28.699Z,84.92
2023-05-07T00:17:55.213Z,84.21
2023-05-07T00:20:21.660Z,82.92
2023-05-07T00:22:48.130Z,84.07
2023-05-07T00:25:14.554Z,83.81
2023-05-07T00:27:41.045Z,83.12
2023-05-07T00:30:09.117Z,84.09
2023-05-07T00:32:35.940Z,84.02
2023-05-07T00:35:02.419Z,83.77
2023-05-07T00:37:28.866Z,81.08
2023-05-07T00:39:57.045Z,82.92
2023-05-07T00:42:23.599Z,80.58
2023-05-07T00:44:50.062Z,80.30
2023-05-07T00:47:16.776Z,81.35
2023-05-07T00:49:44.564Z,79.91
2023-05-07T00:52:14.244Z,82.02
2023-05-07T00:54:42.283Z,82.44
2023-05-07T00:57:10.602Z,83.77
2023-05-07T00:59:37.136Z,81.99
2023-05-07T01:02:03.788Z,83.12
2023-05-07T01:04:31.424Z,83.23
2023-05-07T01:07:00.238Z,82.66
2023-05-07T01:09:27.709Z,81.92
2023-05-07T01:11:54.555Z,81.49
2023-05-07T01:14:21.889Z,83.51
2023-05-07T01:16:50.114Z,82.82
2023-05-07T01:19:19.249Z,83.42
2023-05-07T01:21:49.844Z,81.61
2023-05-07T01:24:16.926Z,83.25
2023-05-07T01:26:46.728Z,82.05
2023-05-07T01:29:13.884Z,83.05
2023-05-07T01:31:41.905Z,80.40
2023-05-07T01:34:09.925Z,82.40
2023-05-07T01:36:39.247Z,83.24
2023-05-07T01:39:07.964Z,81.93
2023-05-07T01:41:34.910Z,83.01
2023-05-07T01:44:01.554Z,84.31
2023-05-07T01:46:28.945Z,83.95
2023-05-07T01:48:55.516Z,81.77
2023-05-07T01:51:23.427Z,80.84
2023-05-07T01:53:52.171Z,82.79
2023-05-07T01:56:22.523Z,81.98
2023-05-07T01:58:49.188Z,81.77
2023-05-07T02:01:15.797Z,80.96
2023-05-07T02:03:42.571Z,80.55
2023-05-07T02:06:09.565Z,79.44
2023-05-07T02:08:36.445Z,79.79
2023-05-07T02:11:03.187Z,79.79
2023-05-07T02:13:31.063Z,79.81
2023-05-07T02:15:57.971Z,80.12
2023-05-07T02:18:24.504Z,77.33
2023-05-07T02:20:51.769Z,79.57
2023-05-07T02:23:18.358Z,78.92
2023-05-07T02:25:44.886Z,79.62
2023-05-07T02:28:11.368Z,80.90
2023-05-07T02:30:38.954Z,81.51
2023-05-07T02:33:05.704Z,81.63
2023-05-07T02:35:32.191Z,82.07
2023-05-07T02:37:58.610Z,81.35
2023-05-07T02:40:25.464Z,82.40
2023-05-07T02:42:51.933Z,79.90
2023-05-07T02:45:19.294Z,82.30
2023-05-07T02:47:45.811Z,80.40
2023-05-07T02:50:12.486Z,79.79
2023-05-07T02:52:39.160Z,79.80
2023-05-07T02:55:06.159Z,76.83
2023-05-07T02:57:32.623Z,78.79
2023-05-07T02:59:59.575Z,78.48
2023-05-07T03:02:25.999Z,80.74
2023-05-07T03:04:52.841Z,79.23
2023-05-07T03:07:19.394Z,81.19
2023-05-07T03:09:46.357Z,78.37
2023-05-07T03:12:12.792Z,78.65
2023-05-07T03:14:39.283Z,80.09
2023-05-07T03:17:06.039Z,80.53
2023-05-07T03:19:32.497Z,81.12
2023-05-07T03:21:58.995Z,80.86
2023-05-07T03:24:25.538Z,79.96
2023-05-07T03:26:52.000Z,79.51
2023-05-07T03:29:18.714Z,81.66
2023-05-07T03:31:45.253Z,81.04
2023-05-07T03:34:11.760Z,80.58
2023-05-07T03:36:38.187Z,79.56
2023-05-07T03:39:04.881Z,79.21
2023-05-07T03:41:31.360Z,78.91
2023-05-07T03:43:57.818Z,78.66
2023-05-07T03:46:27.147Z,80.07
2023-05-07T03:48:53.715Z,79.47
2023-05-07T03:51:20.183Z,77.86
2023-05-07T03:53:46.607Z,78.55
2023-05-07T03:56:13.094Z,78.23
2023-05-07T03:58:39.548Z,77.97
2023-05-07T04:01:06.011Z,78.05
2023-05-07T04:03:32.617Z,79.61
2023-05-07T04:05:59.157Z,78.73
2023-05-07T04:08:25.577Z,77.95
2023-05-07T04:10:58.786Z,77.93
2023-05-07T04:13:25.819Z,78.74
2023-05-07T04:15:56.096Z,78.71
2023-05-07T04:18:22.764Z,78.14
2023-05-07T04:20:50.948Z,78.19
2023-05-07T04:23:17.481Z,76.81
2023-05-07T04:25:44.014Z,77.43
2023-05-07T04:28:10.482Z,78.69
2023-05-07T04:30:36.943Z,78.41
2023-05-07T04:33:03.572Z,77.77
2023-05-07T04:35:30.045Z,77.73
2023-05-07T04:37:56.494Z,78.68
2023-05-07T04:40:23.180Z,77.82
2023-05-07T04:42:49.616Z,76.73
2023-05-07T04:45:16.363Z,76.73
2023-05-07T04:47:42.898Z,78.29
2023-05-07T04:50:09.989Z,79.12
2023-05-07T04:52:36.733Z,78.31
2023-05-07T04:55:03.513Z,78.85
2023-05-07T04:57:29.949Z,75.73
2023-05-07T04:59:56.416Z,78.08
2023-05-07T05:02:22.861Z,77.55
2023-05-07T05:04:49.395Z,77.91
2023-05-07T05:07:15.828Z,76.28
2023-05-07T05:09:42.354Z,76.49
2023-05-07T05:12:10.318Z,76.56
2023-05-07T05:14:37.051Z,75.78
2023-05-07T05:17:03.510Z,78.32
2023-05-07T05:19:29.966Z,75.39
2023-05-07T05:21:56.516Z,77.68
2023-05-07T05:24:22.999Z,77.62
2023-05-07T05:26:49.466Z,77.65
2023-05-07T05:29:15.933Z,76.36
2023-05-07T05:31:42.833Z,76.57
2023-05-07T05:34:09.354Z,76.27
2023-05-07T05:36:35.838Z,79.08
2023-05-07T05:39:02.381Z,76.86
2023-05-07T05:41:28.861Z,77.54
2023-05-07T05:43:55.316Z,78.29
2023-05-07T05:46:21.871Z,77.16
2023-05-07T05:48:48.311Z,77.91
2023-05-07T05:51:14.816Z,75.78
2023-05-07T05:53:41.276Z,76.76
2023-05-07T05:56:07.976Z,76.89
2023-05-07T05:58:34.407Z,77.02
2023-05-07T06:01:01.076Z,75.39
2023-05-07T06:03:27.543Z,77.37
2023-05-07T06:05:54.021Z,77.42
2023-05-07T06:08:20.822Z,77.75
2023-05-07T06:10:47.369Z,77.46
2023-05-07T06:13:13.928Z,78.14
2023-05-07T06:15:40.475Z,77.32
2023-05-07T06:18:07.039Z,77.09
2023-05-07T06:20:33.605Z,78.99
2023-05-07T06:23:00.037Z,78.09
2023-05-07T06:25:26.494Z,79.42
2023-05-07T06:27:52.914Z,77.67
2023-05-07T06:30:19.516Z,79.36
2023-05-07T06:32:45.990Z,78.12
2023-05-07T06:35:12.468Z,79.05
2023-05-07T06:37:40.573Z,77.62
2023-05-07T06:40:08.366Z,78.62
2023-05-07T06:42:35.152Z,79.33
2023-05-07T06:45:02.039Z,77.45
2023-05-07T06:47:28.515Z,77.07
2023-05-07T06:49:55.049Z,76.73
2023-05-07T06:52:21.524Z,76.87
2023-05-07T06:54:48.040Z,77.30
2023-05-07T06:57:14.507Z,77.46
2023-05-07T06:59:41.122Z,76.61
2023-05-07T07:02:07.634Z,74.58
2023-05-07T07:04:34.130Z,76.25
2023-05-07T07:07:00.624Z,75.24
2023-05-07T07:09:27.090Z,75.18
2023-05-07T07:11:53.568Z,77.15
2023-05-07T07:14:20.090Z,75.89
2023-05-07T07:16:47.860Z,73.78
2023-05-07T07:19:16.187Z,75.34
2023-05-07T07:21:43.188Z,74.89
2023-05-07T07:24:09.651Z,71.83
2023-05-07T07:26:36.244Z,71.94
2023-05-07T07:29:02.728Z,73.97
2023-05-07T07:31:29.313Z,74.08
2023-05-07T07:33:55.897Z,74.33
2023-05-07T07:36:23.810Z,74.19
2023-05-07T07:38:54.839Z,73.02
2023-05-07T07:41:21.369Z,73.64
2023-05-07T07:43:49.159Z,72.35
2023-05-07T07:46:16.678Z,71.53
2023-05-07T07:48:43.143Z,72.30
2023-05-07T07:51:09.633Z,70.80
2023-05-07T07:53:36.087Z,72.87
2023-05-07T07:56:04.976Z,73.84
2023-05-07T07:58:32.664Z,72.15
2023-05-07T08:00:59.243Z,71.37
2023-05-07T08:03:25.826Z,71.67
2023-05-07T08:05:52.332Z,72.02
2023-05-07T08:08:18.791Z,70.70
2023-05-07T08:10:45.617Z,70.64
2023-05-07T08:13:12.145Z,70.67
2023-05-07T08:15:38.660Z,69.75
2023-05-07T08:18:05.340Z,70.89
2023-05-07T08:20:32.050Z,71.11
2023-05-07T08:22:58.589Z,71.53
2023-05-07T08:25:25.187Z,68.43
2023-05-07T08:27:51.665Z,69.76
2023-05-07T08:30:18.146Z,70.27
2023-05-07T08:32:44.675Z,68.58
2023-05-07T08:35:11.360Z,65.96
2023-05-07T08:37:37.919Z,66.08
2023-05-07T08:40:06.573Z,67.28
2023-05-07T08:42:38.518Z,70.53
2023-05-07T08:45:09.340Z,70.16
2023-05-07T08:47:48.785Z,69.08
2023-05-07T08:50:15.581Z,68.23
2023-05-07T08:52:42.189Z,67.80
2023-05-07T08:55:10.289Z,69.49
2023-05-07T08:57:37.104Z,69.12
2023-05-07T09:00:08.275Z,68.08
2023-05-07T09:02:49.117Z,68.03
2023-05-07T09:05:15.658Z,65.96
2023-05-07T09:07:42.165Z,68.44
2023-05-07T09:10:09.192Z,68.55
2023-05-07T09:12:37.242Z,66.58
2023-05-07T09:15:04.151Z,66.25
2023-05-07T09:17:30.708Z,64.42
2023-05-07T09:19:57.779Z,64.60
2023-05-07T09:22:24.336Z,67.02
2023-05-07T09:24:51.768Z,66.87
2023-05-07T09:27:19.003Z,66.73
2023-05-07T09:29:45.892Z,63.59
2023-05-07T09:32:12.407Z,66.06
2023-05-07T09:34:38.933Z,63.43
2023-05-07T09:37:06.797Z,63.53
2023-05-07T09:39:40.922Z,64.61
2023-05-07T09:42:07.656Z,64.26
2023-05-07T09:44:35.442Z,62.36
2023-05-07T09:47:03.005Z,62.77
2023-05-07T09:49:33.382Z,63.87
2023-05-07T09:52:01.585Z,63.35
2023-05-07T09:54:31.712Z,63.88
2023-05-07T09:56:59.410Z,65.45
2023-05-07T09:59:29.871Z,63.43
2023-05-07T10:01:59.283Z,61.14
2023-05-07T10:04:28.890Z,62.25
2023-05-07T10:06:56.620Z,62.00
2023-05-07T10:09:23.885Z,62.14
2023-05-07T10:11:51.078Z,63.37
2023-05-07T10:14:18.394Z,63.02
2023-05-07T10:16:45.804Z,63.04
2023-05-07T10:19:12.887Z,63.46
2023-05-07T10:21:43.007Z,60.71
2023-05-07T10:24:26.835Z,62.37
2023-05-07T10:26:58.107Z,62.22
2023-05-07T10:29:35.864Z,61.18
2023-05-07T10:32:12.748Z,60.92
2023-05-07T10:34:43.276Z,60.51
2023-05-07T10:37:10.987Z,60.23
2023-05-07T10:39:37.947Z,62.46
2023-05-07T10:42:11.898Z,61.27
2023-05-07T10:44:38.739Z,61.03
2023-05-07T10:47:17.466Z,60.75
2023-05-07T10:49:43.847Z,59.31
2023-05-07T10:52:18.549Z,60.31
2023-05-07T10:54:46.226Z,58.51
2023-05-07T10:57:37.512Z,57.45
2023-05-07T11:00:04.924Z,59.46
2023-05-07T11:03:06.810Z,61.06
2023-05-07T11:05:37.297Z,57.67
2023-05-07T11:08:05.836Z,59.02
2023-05-07T11:10:53.063Z,59.50
2023-05-07T11:13:40.835Z,60.35
2023-05-07T11:16:18.238Z,61.05
2023-05-07T11:18:50.924Z,60.98
2023-05-07T11:21:42.633Z,61.22
2023-05-07T11:24:10.284Z,60.29
2023-05-07T11:26:44.581Z,59.87
2023-05-07T11:29:20.832Z,59.82
2023-05-07T11:31:53.157Z,58.50
2023-05-07T11:34:24.651Z,58.00
2023-05-07T11:36:51.517Z,56.90
2023-05-07T11:39:34.449Z,57.75
2023-05-07T11:42:01.470Z,57.91
2023-05-07T11:44:42.455Z,56.37
2023-05-07T11:47:09.161Z,55.63
2023-05-07T11:49:35.674Z,57.32
2023-05-07T11:52:02.137Z,58.51
2023-05-07T11:54:36.356Z,58.32
2023-05-07T11:57:03.073Z,57.92
2023-05-07T11:59:29.547Z,58.44
2023-05-07T12:02:00.322Z,57.81
2023-05-07T12:04:27.055Z,58.94
2023-05-07T12:06:56.846Z,57.40
2023-05-07T12:09:23.383Z,57.04
2023-05-07T12:11:49.944Z,57.78
2023-05-07T12:14:19.265Z,58.04
2023-05-07T12:16:46.415Z,57.72
2023-05-07T12:19:16.167Z,56.46
2023-05-07T12:21:42.795Z,56.27
2023-05-07T12:24:09.296Z,56.44
2023-05-07T12:26:39.247Z,55.12
2023-05-07T12:29:05.868Z,55.00
2023-05-07T12:31:32.432Z,54.94
2023-05-07T12:33:58.944Z,54.70
2023-05-07T12:36:26.924Z,52.06
2023-05-07T12:38:55.635Z,49.94
2023-05-07T12:41:26.838Z,52.86
2023-05-07T12:43:57.642Z,53.02
2023-05-07T12:46:24.701Z,52.41
2023-05-07T12:48:51.303Z,50.78
2023-05-07T12:51:17.822Z,51.77
2023-05-07T12:53:44.489Z,52.59
2023-05-07T12:56:11.031Z,53.58
2023-05-07T12:58:37.585Z,53.55
2023-05-07T13:01:08.462Z,51.62
2023-05-07T13:03:36.243Z,52.98
2023-05-07T13:06:11.456Z,50.89
2023-05-07T13:08:41.676Z,50.54
2023-05-07T13:11:10.018Z,49.35
2023-05-07T13:13:38.401Z,48.89
2023-05-07T13:16:06.380Z,50.04
2023-05-07T13:18:33.688Z,49.40
2023-05-07T13:21:01.895Z,47.50
2023-05-07T13:23:28.785Z,46.70
2023-05-07T13:25:56.742Z,48.14
2023-05-07T13:28:24.233Z,47.89
2023-05-07T13:30:52.792Z,47.74
2023-05-07T13:33:19.444Z,48.79
2023-05-07T13:35:45.983Z,49.10
2023-05-07T13:38:12.436Z,48.63
2023-05-07T13:40:38.913Z,49.25
2023-05-07T13:43:07.138Z,47.77
2023-05-07T13:45:34.135Z,46.90
2023-05-07T13:48:01.976Z,46.54
2023-05-07T13:50:30.191Z,46.80
2023-05-07T13:52:56.907Z,47.22
2023-05-07T13:55:24.760Z,48.64
2023-05-07T13:57:59.562Z,49.24
2023-05-07T14:00:27.460Z,48.26
2023-05-07T14:02:54.379Z,47.83
2023-05-07T14:05:21.025Z,50.92
2023-05-07T14:07:48.742Z,49.37
2023-05-07T14:10:15.557Z,47.62
2023-05-07T14:12:42.404Z,47.97
2023-05-07T14:15:09.314Z,48.58
2023-05-07T14:17:35.895Z,49.17
2023-05-07T14:20:02.509Z,49.52
2023-05-07T14:22:29.060Z,48.63
2023-05-07T14:25:05.972Z,48.09
2023-05-07T14:27:33.600Z,49.32
2023-05-07T14:30:00.772Z,48.85
2023-05-07T14:32:28.138Z,49.55
2023-05-07T14:34:54.673Z,48.83
2023-05-07T14:37:22.296Z,49.99
2023-05-07T14:39:50.530Z,50.17
2023-05-07T14:42:17.829Z,48.66
2023-05-07T14:44:45.781Z,49.18
2023-05-07T14:47:12.242Z,47.87
2023-05-07T14:49:39.042Z,49.44
2023-05-07T14:52:07.157Z,49.42
2023-05-07T14:54:38.916Z,50.41
2023-05-07T14:57:06.833Z,50.18
2023-05-07T14:59:33.375Z,50.41
2023-05-07T15:01:59.878Z,49.90
2023-05-07T15:04:26.462Z,50.98
2023-05-07T15:06:54.758Z,50.86
2023-05-07T15:09:21.271Z,50.05
2023-05-07T15:11:47.700Z,50.09
2023-05-07T15:14:14.302Z,50.25
2023-05-07T15:16:40.904Z,49.88
2023-05-07T15:19:07.536Z,51.32
2023-05-07T15:21:35.753Z,50.56
2023-05-07T15:24:02.934Z,51.22
2023-05-07T15:26:30.244Z,50.50
2023-05-07T15:28:59.617Z,51.06
2023-05-07T15:31:26.398Z,51.22
2023-05-07T15:33:53.261Z,49.84
2023-05-07T15:36:21.212Z,50.15
2023-05-07T15:38:47.695Z,49.47
2023-05-07T15:41:14.171Z,49.30
2023-05-07T15:43:49.802Z,49.82
2023-05-07T15:46:21.058Z,49.31
2023-05-07T15:48:47.731Z,47.85
2023-05-07T15:51:14.319Z,49.27
2023-05-07T15:53:41.211Z,48.23
2023-05-07T15:56:07.810Z,49.40
2023-05-07T15:58:35.845Z,48.84
2023-05-07T16:01:02.530Z,48.47
2023-05-07T16:03:32.035Z,47.74
2023-05-07T16:06:00.837Z,47.73
2023-05-07T16:08:27.659Z,48.13
2023-05-07T16:10:54.425Z,47.58
2023-05-07T16:13:21.954Z,46.88
2023-05-07T16:15:48.603Z,47.49
2023-05-07T16:18:17.986Z,49.03
2023-05-07T16:20:44.481Z,48.10
2023-05-07T16:23:13.033Z,48.15
2023-05-07T16:25:39.579Z,49.22
2023-05-07T16:28:06.787Z,48.87
2023-05-07T16:30:33.898Z,49.16
2023-05-07T16:33:02.979Z,48.40
2023-05-07T16:35:29.534Z,49.52
2023-05-07T16:37:56.066Z,50.40
2023-05-07T16:40:22.893Z,49.97
2023-05-07T16:42:49.376Z,49.82
2023-05-07T16:45:16.513Z,49.75
2023-05-07T16:47:43.137Z,50.07
2023-05-07T16:50:10.042Z,49.84
2023-05-07T16:52:36.545Z,49.00
2023-05-07T16:55:03.138Z,49.15
2023-05-07T16:57:30.736Z,48.31
2023-05-07T16:59:57.484Z,48.49
2023-05-07T17:02:24.242Z,48.62
2023-05-07T17:04:50.816Z,48.39
2023-05-07T17:07:17.544Z,48.55
2023-05-07T17:09:44.084Z,48.51
2023-05-07T17:12:10.647Z,48.63
2023-05-07T17:14:37.452Z,50.55
2023-05-07T17:17:04.096Z,51.64
2023-05-07T17:19:30.570Z,51.31
2023-05-07T17:21:57.599Z,51.60
2023-05-07T17:24:24.043Z,52.09
2023-05-07T17:26:51.022Z,52.16
2023-05-07T17:29:19.217Z,51.78
2023-05-07T17:31:46.516Z,52.26
2023-05-07T17:34:15.877Z,52.80
2023-05-07T17:36:44.139Z,52.08
2023-05-07T17:39:10.653Z,52.83
2023-05-07T17:41:37.387Z,53.10
2023-05-07T17:44:04.000Z,53.13
2023-05-07T17:46:30.778Z,52.58
2023-05-07T17:48:57.943Z,52.92
2023-05-07T17:51:25.971Z,52.51
2023-05-07T17:53:52.443Z,52.64
2023-05-07T17:56:18.902Z,52.75
2023-05-07T17:58:58.875Z,53.50
2023-05-07T18:01:26.295Z,53.28
2023-05-07T18:03:52.916Z,53.77
2023-05-07T18:06:20.817Z,53.94
2023-05-07T18:08:47.738Z,54.01
2023-05-07T18:11:14.518Z,54.31
2023-05-07T18:13:41.039Z,54.69
2023-05-07T18:16:07.699Z,54.42
2023-05-07T18:18:35.441Z,54.37
2023-05-07T18:21:03.436Z,54.56
2023-05-07T18:23:30.957Z,54.96
2023-05-07T18:25:58.501Z,55.29
2023-05-07T18:28:28.599Z,55.14
2023-05-07T18:30:55.194Z,56.17
2023-05-07T18:33:22.863Z,55.99
2023-05-07T18:35:49.318Z,55.90
2023-05-07T18:38:16.468Z,56.41
2023-05-07T18:40:44.154Z,56.26
2023-05-07T18:43:11.325Z,56.72
2023-05-07T18:45:40.796Z,57.40
2023-05-07T18:48:07.616Z,57.48
2023-05-07T18:50:34.285Z,58.01
2023-05-07T18:53:00.883Z,58.24
2023-05-07T18:55:27.408Z,57.23
2023-05-07T18:57:53.895Z,57.85
2023-05-07T19:00:20.499Z,58.06
2023-05-07T19:02:46.992Z,57.82
2023-05-07T19:05:13.550Z,59.42
2023-05-07T19:07:40.081Z,59.25
2023-05-07T19:10:07.099Z,59.94
2023-05-07T19:12:33.581Z,59.18
2023-05-07T19:15:00.162Z,59.43
2023-05-07T19:17:26.684Z,59.05
2023-05-07T19:19:53.162Z,59.65
2023-05-07T19:22:19.712Z,60.94
2023-05-07T19:24:46.173Z,59.19
2023-05-07T19:27:12.654Z,59.77
2023-05-07T19:29:40.109Z,60.27
2023-05-07T19:32:06.662Z,60.36
2023-05-07T19:34:33.274Z,59.96
2023-05-07T19:36:59.732Z,61.19
2023-05-07T19:39:27.166Z,60.88
2023-05-07T19:41:53.717Z,60.96
2023-05-07T19:44:20.283Z,61.11
2023-05-07T19:46:47.800Z,61.19
2023-05-07T19:49:14.320Z,60.46
2023-05-07T19:51:40.925Z,61.66
2023-05-07T19:54:07.376Z,61.31
2023-05-07T19:56:33.842Z,62.54
2023-05-07T19:59:00.413Z,61.90
2023-05-07T20:01:28.868Z,63.55
2023-05-07T20:03:55.835Z,63.58
2023-05-07T20:06:23.432Z,63.30
2023-05-07T20:08:50.290Z,63.20
2023-05-07T20:11:16.778Z,62.93
2023-05-07T20:13:43.265Z,63.25
2023-05-07T20:16:09.864Z,63.27
2023-05-07T20:18:36.516Z,63.23
2023-05-07T20:21:04.522Z,64.41
2023-05-07T20:23:31.177Z,64.77
2023-05-07T20:25:58.389Z,64.32
2023-05-07T20:28:25.543Z,65.00
2023-05-07T20:30:52.002Z,65.44
2023-05-07T20:33:18.544Z,63.90
2023-05-07T20:35:45.294Z,64.85
2023-05-07T20:38:11.922Z,66.77
2023-05-07T20:40:38.647Z,67.42
2023-05-07T20:43:06.617Z,66.04
2023-05-07T20:45:33.379Z,66.85
2023-05-07T20:48:00.942Z,67.44
2023-05-07T20:50:27.943Z,67.95
2023-05-07T20:52:54.425Z,67.74
2023-05-07T20:55:20.908Z,67.85
2023-05-07T20:57:47.415Z,68.45
2023-05-07T21:00:15.851Z,68.29
2023-05-07T21:02:42.623Z,68.62
2023-05-07T21:05:09.462Z,68.79
2023-05-07T21:07:35.962Z,67.81
2023-05-07T21:10:03.322Z,68.19
2023-05-07T21:12:29.848Z,68.62
2023-05-07T21:14:56.730Z,67.50
2023-05-07T21:17:23.303Z,67.97
2023-05-07T21:19:50.180Z,67.89
2023-05-07T21:22:16.834Z,68.56
2023-05-07T21:24:44.073Z,68.41
2023-05-07T21:27:10.836Z,69.37
2023-05-07T21:29:38.603Z,68.37
2023-05-07T21:32:05.611Z,69.39
2023-05-07T21:34:32.164Z,68.77
2023-05-07T21:36:58.755Z,68.81
2023-05-07T21:39:25.514Z,68.11
2023-05-07T21:41:51.951Z,68.35
2023-05-07T21:44:18.428Z,68.31
2023-05-07T21:46:45.201Z,68.21
2023-05-07T21:49:11.992Z,67.35
2023-05-07T21:51:38.613Z,67.56
2023-05-07T21:54:05.366Z,68.30
2023-05-07T21:56:31.870Z,68.00
2023-05-07T21:58:58.438Z,67.14
2023-05-07T22:01:25.132Z,67.55
2023-05-07T22:03:52.027Z,67.94
2023-05-07T22:06:22.646Z,67.36
2023-05-07T22:08:49.723Z,66.56
2023-05-07T22:11:16.228Z,67.86
2023-05-07T22:13:43.796Z,66.56
2023-05-07T22:16:10.366Z,67.48
2023-05-07T22:18:36.843Z,67.08
2023-05-07T22:21:03.364Z,66.95
2023-05-07T22:23:29.884Z,67.12
2023-05-07T22:25:56.364Z,66.97
2023-05-07T22:28:22.808Z,66.57
2023-05-07T22:30:50.441Z,66.97
2023-05-07T22:33:16.968Z,66.34
2023-05-07T22:35:43.463Z,67.25
2023-05-07T22:38:09.937Z,66.77
2023-05-07T22:40:36.408Z,66.31
2023-05-07T22:43:02.865Z,66.76
2023-05-07T22:45:29.374Z,68.10
2023-05-07T22:47:55.824Z,66.98
2023-05-07T22:50:22.571Z,66.27
2023-05-07T22:52:49.145Z,65.15
2023-05-07T22:55:15.758Z,66.22
2023-05-07T22:57:42.246Z,66.66
2023-05-07T23:00:10.022Z,66.30
2023-05-07T23:02:36.936Z,67.59
2023-05-07T23:05:03.804Z,67.47
2023-05-07T23:07:30.495Z,68.52
2023-05-07T23:09:57.072Z,68.33
2023-05-07T23:12:23.573Z,67.58
2023-05-07T23:14:50.153Z,67.31
2023-05-07T23:17:17.062Z,67.04
2023-05-07T23:19:43.622Z,67.97
2023-05-07T23:22:10.456Z,66.75
2023-05-07T23:24:37.027Z,66.94
2023-05-07T23:27:07.291Z,68.14
2023-05-07T23:29:34.285Z,66.81
2023-05-07T23:32:01.870Z,67.70
2023-05-07T23:34:28.343Z,67.39
2023-05-07T23:36:54.913Z,66.78
2023-05-07T23:39:21.385Z,66.14
2023-05-07T23:41:47.988Z,66.80
2023-05-07T23:44:16.651Z,66.74
2023-05-07T23:46:44.473Z,68.49
2023-05-07T23:49:11.179Z,67.27
2023-05-07T23:51:37.961Z,66.47
2023-05-07T23:54:04.776Z,68.36
2023-05-07T23:56:31.579Z,68.33
2023-05-07T23:58:58.107Z,67.81
